Time;durP1;ratioP1;P1;durP2;ratioP2;P2;SDS_P1;SDS_P2;PMS_P1;PMS_P2;Temp;Humidity;BMP_temperature;BMP_pressure;BME280_temperature;BME280_humidity;BME280_pressure;Samples;Min_cycle;Max_cycle;Signal;HPM_P1;HPM_P2
2021/12/17 00:02:53;;;;;;;234.70;82.93;;;;;;;;;;4988665;28;20113;-86
2021/12/17 00:04:59;;;;;;;210.00;81.53;;;;;;;;;;5005216;28;20388;-86
2021/12/17 00:07:26;;;;;;;230.45;82.85;;;;;;;;;;5004506;28;20045;-85
2021/12/17 00:09:52;;;;;;;258.50;90.25;;;;;;;;;;5014943;28;20031;-87
2021/12/17 00:12:19;;;;;;;236.23;89.20;;;;;;;;;;4991102;28;20061;-85
2021/12/17 00:14:47;;;;;;;218.60;83.90;;;;;;;;;;5007583;28;20038;-84
2021/12/17 00:17:18;;;;;;;228.75;79.63;;;;;;;;;;4991049;28;20049;-85
2021/12/17 00:50:01;;;;;;;218.00;83.63;;;;;;;;;;5017007;28;20091;-85
2021/12/17 00:52:30;;;;;;;216.38;87.78;;;;;;;;;;4999197;28;20042;-85
2021/12/17 00:54:56;;;;;;;205.90;77.50;;;;;;;;;;4998318;28;20050;-87
2021/12/17 00:57:26;;;;;;;232.80;84.38;;;;;;;;;;5016277;28;20030;-86
2021/12/17 00:59:53;;;;;;;212.75;82.47;;;;;;;;;;5004004;28;20097;-85
2021/12/17 01:02:20;;;;;;;220.20;80.15;;;;;;;;;;5000204;28;20045;-84
2021/12/17 01:04:49;;;;;;;219.32;80.28;;;;;;;;;;5016644;28;20094;-85
2021/12/17 01:07:15;;;;;;;207.50;79.45;;;;;;;;;;4997017;28;20142;-87
2021/12/17 01:09:42;;;;;;;204.02;77.88;;;;;;;;;;4996160;28;20065;-86
2021/12/17 01:12:08;;;;;;;191.48;80.57;;;;;;;;;;5013387;28;20057;-88
2021/12/17 01:14:34;;;;;;;203.27;79.45;;;;;;;;;;4998121;28;20046;-86
2021/12/17 01:17:01;;;;;;;209.40;80.10;;;;;;;;;;4999659;28;20039;-87
2021/12/17 01:24:50;;;;;;;225.63;82.80;;;;;;;;;;5017086;28;20019;-85
2021/12/17 01:35:32;;;;;;;210.35;80.97;;;;;;;;;;5017051;28;20042;-89
2021/12/17 01:43:06;;;;;;;182.88;71.43;;;;;;;;;;5015910;28;19916;-89
2021/12/17 01:45:37;;;;;;;186.32;72.00;;;;;;;;;;5015929;28;20070;-86
2021/12/17 01:48:06;;;;;;;175.45;70.07;;;;;;;;;;5000393;28;20133;-86
2021/12/17 01:56:37;;;;;;;185.07;75.05;;;;;;;;;;5018319;28;20027;-88
2021/12/17 02:01:50;;;;;;;175.18;73.75;;;;;;;;;;5018786;28;20038;-87
2021/12/17 02:04:16;;;;;;;168.75;68.90;;;;;;;;;;5000997;28;20117;-85
2021/12/17 02:06:42;;;;;;;165.60;74.00;;;;;;;;;;5011863;28;20038;-84
2021/12/17 02:09:54;;;;;;;178.48;71.57;;;;;;;;;;4997181;28;20076;-86
2021/12/17 02:12:28;;;;;;;161.35;68.85;;;;;;;;;;5016498;28;20046;-88
2021/12/17 02:20:46;;;;;;;191.95;73.53;;;;;;;;;;5016097;28;20494;-87
2021/12/17 02:28:55;;;;;;;197.48;77.20;;;;;;;;;;5013580;28;20034;-87
2021/12/17 02:31:29;;;;;;;163.40;69.25;;;;;;;;;;5016582;28;20085;-83
2021/12/17 02:33:57;;;;;;;173.63;72.78;;;;;;;;;;5002516;28;20058;-85
2021/12/17 02:36:27;;;;;;;169.52;69.95;;;;;;;;;;4997537;28;20048;-87
2021/12/17 02:39:06;;;;;;;199.88;78.68;;;;;;;;;;4998429;28;20046;-87
2021/12/17 02:47:05;;;;;;;167.57;70.82;;;;;;;;;;5014990;28;20058;-87
2021/12/17 02:49:31;;;;;;;162.98;70.75;;;;;;;;;;5013884;28;20069;-88
2021/12/17 02:51:59;;;;;;;168.98;72.43;;;;;;;;;;4997121;28;20072;-85
2021/12/17 02:54:25;;;;;;;168.30;71.95;;;;;;;;;;5014374;28;20053;-87
2021/12/17 02:56:51;;;;;;;170.40;68.88;;;;;;;;;;4997849;28;20062;-86
2021/12/17 02:59:18;;;;;;;177.10;68.25;;;;;;;;;;4996278;28;20042;-88
2021/12/17 03:01:45;;;;;;;166.70;68.45;;;;;;;;;;4998268;28;20035;-88
2021/12/17 03:04:12;;;;;;;173.40;72.70;;;;;;;;;;4991211;28;20049;-86
2021/12/17 03:06:40;;;;;;;196.07;76.60;;;;;;;;;;4989321;28;20039;-86
2021/12/17 03:09:07;;;;;;;171.88;70.28;;;;;;;;;;4991213;28;20060;-88
2021/12/17 03:11:33;;;;;;;173.55;68.35;;;;;;;;;;4995485;28;20097;-86
2021/12/17 03:13:59;;;;;;;167.60;72.22;;;;;;;;;;4994178;28;20035;-86
2021/12/17 03:16:34;;;;;;;156.23;71.93;;;;;;;;;;4995635;28;20085;-86
2021/12/17 03:24:11;;;;;;;168.15;72.40;;;;;;;;;;5016695;28;20073;-87
2021/12/17 03:26:37;;;;;;;171.77;74.15;;;;;;;;;;4999774;28;20039;-87
2021/12/17 03:29:06;;;;;;;153.90;68.25;;;;;;;;;;4999460;28;20098;-88
2021/12/17 03:31:34;;;;;;;165.45;71.60;;;;;;;;;;4998543;28;20043;-87
2021/12/17 03:34:17;;;;;;;156.30;67.40;;;;;;;;;;4998382;28;20086;-88
2021/12/17 03:36:43;;;;;;;166.23;67.38;;;;;;;;;;4997371;28;20065;-85
2021/12/17 03:39:09;;;;;;;144.82;64.45;;;;;;;;;;5013281;28;20122;-87
2021/12/17 03:41:39;;;;;;;157.20;67.50;;;;;;;;;;4997323;28;20025;-86
2021/12/17 03:44:06;;;;;;;157.80;70.38;;;;;;;;;;5003093;28;20057;-88
2021/12/17 03:46:32;;;;;;;178.77;74.88;;;;;;;;;;5003165;28;20038;-87
2021/12/17 03:48:59;;;;;;;155.43;66.88;;;;;;;;;;5019741;28;20053;-89
2021/12/17 03:51:25;;;;;;;153.32;68.32;;;;;;;;;;5019618;28;20038;-88
2021/12/17 03:53:52;;;;;;;145.30;65.32;;;;;;;;;;5002316;28;20049;-87
2021/12/17 03:56:18;;;;;;;151.95;68.47;;;;;;;;;;5000224;28;20042;-87
2021/12/17 03:58:44;;;;;;;164.23;71.40;;;;;;;;;;5017521;28;20038;-87
2021/12/17 04:01:10;;;;;;;171.45;74.50;;;;;;;;;;5002719;28;20046;-87
2021/12/17 04:03:36;;;;;;;153.88;69.82;;;;;;;;;;5002277;28;20052;-84
2021/12/17 04:06:02;;;;;;;148.40;67.55;;;;;;;;;;5020391;28;20066;-86
2021/12/17 04:08:29;;;;;;;145.82;68.25;;;;;;;;;;5004946;28;20054;-85
2021/12/17 04:11:03;;;;;;;163.43;67.65;;;;;;;;;;5000605;28;20057;-86
2021/12/17 04:13:33;;;;;;;149.77;69.43;;;;;;;;;;5001287;28;20049;-88
2021/12/17 04:16:03;;;;;;;148.63;68.32;;;;;;;;;;5018640;28;20097;-86
2021/12/17 04:18:29;;;;;;;139.93;64.50;;;;;;;;;;5000534;28;20038;-88
2021/12/17 04:20:55;;;;;;;133.38;61.85;;;;;;;;;;4999008;28;20042;-86
2021/12/17 04:23:22;;;;;;;138.50;62.95;;;;;;;;;;5002076;28;20197;-87
2021/12/17 04:25:49;;;;;;;145.68;67.10;;;;;;;;;;5001106;28;20042;-85
2021/12/17 04:28:15;;;;;;;149.77;65.63;;;;;;;;;;5000644;28;20053;-87
2021/12/17 04:30:41;;;;;;;152.25;67.85;;;;;;;;;;5000387;28;20042;-85
2021/12/17 04:33:07;;;;;;;128.40;61.90;;;;;;;;;;5002128;28;20042;-88
2021/12/17 04:35:33;;;;;;;145.00;66.38;;;;;;;;;;5002228;28;20027;-85
2021/12/17 04:38:00;;;;;;;155.05;66.05;;;;;;;;;;5002570;28;20186;-88
2021/12/17 04:40:27;;;;;;;146.23;66.43;;;;;;;;;;5019323;28;20038;-89
2021/12/17 04:45:48;;;;;;;158.93;67.18;;;;;;;;;;5015475;28;20042;-88
2021/12/17 04:59:13;;;;;;;146.60;68.30;;;;;;;;;;5013817;28;20038;-87
2021/12/17 05:01:40;;;;;;;162.10;72.72;;;;;;;;;;4997707;28;20126;-86
2021/12/17 05:04:06;;;;;;;162.25;70.82;;;;;;;;;;4997826;28;20039;-87
2021/12/17 05:06:32;;;;;;;166.35;72.65;;;;;;;;;;4998531;28;20090;-88
2021/12/17 05:09:07;;;;;;;162.55;67.38;;;;;;;;;;4995669;28;20038;-89
2021/12/17 05:19:53;;;;;;;161.68;69.00;;;;;;;;;;5012309;28;20038;-86
2021/12/17 05:22:19;;;;;;;159.95;68.35;;;;;;;;;;4995256;28;20057;-86
2021/12/17 05:24:46;;;;;;;154.00;64.63;;;;;;;;;;4994061;28;20049;-85
2021/12/17 05:27:12;;;;;;;167.95;68.32;;;;;;;;;;4991193;28;20046;-87
2021/12/17 05:29:38;;;;;;;150.40;61.65;;;;;;;;;;4991519;28;20049;-86
2021/12/17 05:32:04;;;;;;;155.30;65.05;;;;;;;;;;4992241;28;20046;-87
2021/12/17 05:34:30;;;;;;;142.27;62.22;;;;;;;;;;5009349;28;20038;-87
2021/12/17 05:36:56;;;;;;;147.52;64.03;;;;;;;;;;4994087;28;20046;-88
2021/12/17 05:39:22;;;;;;;161.98;71.18;;;;;;;;;;4994054;28;20105;-89
2021/12/17 05:41:48;;;;;;;172.50;66.57;;;;;;;;;;5010709;28;20042;-88
2021/12/17 05:44:16;;;;;;;145.95;67.63;;;;;;;;;;4995467;28;20050;-88
2021/12/17 05:46:49;;;;;;;155.13;69.35;;;;;;;;;;5011586;28;20034;-87
2021/12/17 05:49:25;;;;;;;156.02;70.22;;;;;;;;;;4994938;28;20052;-88
2021/12/17 05:51:51;;;;;;;160.80;69.05;;;;;;;;;;4994395;28;20045;-86
2021/12/17 05:54:17;;;;;;;163.93;68.53;;;;;;;;;;4993065;28;20362;-86
2021/12/17 05:56:43;;;;;;;169.45;71.63;;;;;;;;;;4994011;28;20169;-87
2021/12/17 05:59:10;;;;;;;161.55;72.35;;;;;;;;;;5010948;28;20417;-88
2021/12/17 06:01:36;;;;;;;155.02;68.28;;;;;;;;;;4992685;28;20042;-88
2021/12/17 06:04:02;;;;;;;152.13;67.53;;;;;;;;;;4991051;28;20093;-85
2021/12/17 06:06:32;;;;;;;145.20;64.78;;;;;;;;;;4984057;28;20049;-80
2021/12/17 06:09:01;;;;;;;130.85;60.63;;;;;;;;;;4983431;28;20130;-82
2021/12/17 06:11:27;;;;;;;126.13;56.75;;;;;;;;;;4993682;28;20458;-81
2021/12/17 06:13:53;;;;;;;132.27;55.40;;;;;;;;;;4985968;28;20093;-81
2021/12/17 06:16:19;;;;;;;114.35;53.70;;;;;;;;;;4986870;28;20417;-80
2021/12/17 06:18:45;;;;;;;114.68;53.13;;;;;;;;;;4988725;28;20049;-83
2021/12/17 06:21:11;;;;;;;126.65;53.08;;;;;;;;;;4990661;28;20034;-82
2021/12/17 06:23:37;;;;;;;113.10;53.35;;;;;;;;;;5012352;28;20053;-82
2021/12/17 06:26:04;;;;;;;126.20;51.58;;;;;;;;;;4989469;28;20354;-80
2021/12/17 06:28:30;;;;;;;118.85;49.25;;;;;;;;;;4989712;28;20038;-82
2021/12/17 06:30:56;;;;;;;103.15;45.17;;;;;;;;;;5003719;28;20049;-83
2021/12/17 06:33:22;;;;;;;94.57;43.60;;;;;;;;;;5004698;28;20264;-82
2021/12/17 06:35:48;;;;;;;101.88;44.78;;;;;;;;;;4988738;28;20480;-82
2021/12/17 06:38:14;;;;;;;103.40;45.40;;;;;;;;;;5005837;28;20046;-83
2021/12/17 06:40:40;;;;;;;96.68;44.47;;;;;;;;;;5004534;28;20039;-81
2021/12/17 06:43:06;;;;;;;106.05;44.58;;;;;;;;;;5006226;28;20061;-82
2021/12/17 06:45:49;;;;;;;104.82;44.78;;;;;;;;;;5006389;28;20038;-81
2021/12/17 06:48:17;;;;;;;119.38;48.85;;;;;;;;;;5000374;28;20043;-80
2021/12/17 07:17:09;;;;;;;124.95;54.50;;;;;;;;;;4999909;28;20053;-83
2021/12/17 07:17:34;;;;;;;120.93;51.08;;;;;;;;;;5004215;28;20038;-81
2021/12/17 07:33:44;;;;;;;100.97;46.38;;;;;;;;;;5006980;28;20034;-84
2021/12/17 07:36:14;;;;;;;98.82;45.95;;;;;;;;;;4990142;28;20470;-83
2021/12/17 07:38:47;;;;;;;80.60;42.08;;;;;;;;;;4989330;28;20061;-83
2021/12/17 07:41:14;;;;;;;77.18;40.75;;;;;;;;;;4989398;28;20038;-84
2021/12/17 07:43:51;;;;;;;78.55;40.78;;;;;;;;;;4988114;28;20055;-83
2021/12/17 07:46:17;;;;;;;74.57;39.70;;;;;;;;;;4989622;28;20350;-83
2021/12/17 07:48:43;;;;;;;82.13;41.20;;;;;;;;;;4987802;28;20050;-84
2021/12/17 07:51:10;;;;;;;77.90;40.05;;;;;;;;;;4988785;28;20045;-83
2021/12/17 07:53:37;;;;;;;72.32;38.72;;;;;;;;;;5004356;28;20045;-83
2021/12/17 07:56:04;;;;;;;90.80;40.40;;;;;;;;;;4987739;28;20087;-84
2021/12/17 07:58:30;;;;;;;76.75;40.00;;;;;;;;;;4987853;28;20142;-84
2021/12/17 08:00:56;;;;;;;87.63;38.33;;;;;;;;;;5003667;28;20046;-81
2021/12/17 08:03:22;;;;;;;90.60;39.13;;;;;;;;;;5003730;28;20050;-81
2021/12/17 08:05:48;;;;;;;85.05;39.63;;;;;;;;;;5003631;28;20085;-81
2021/12/17 08:08:14;;;;;;;87.57;39.53;;;;;;;;;;5004936;28;20581;-81
2021/12/17 08:10:40;;;;;;;91.32;39.80;;;;;;;;;;4987145;28;20069;-81
2021/12/17 08:13:14;;;;;;;87.80;40.60;;;;;;;;;;5003244;28;20046;-82
2021/12/17 08:15:48;;;;;;;83.70;38.17;;;;;;;;;;5004720;28;20054;-82
2021/12/17 08:18:26;;;;;;;77.43;36.58;;;;;;;;;;5005319;28;20065;-82
2021/12/17 08:24:17;;;;;;;63.53;29.70;;;;;;;;;;5005022;28;20481;-83
2021/12/17 08:31:27;;;;;;;45.10;24.23;;;;;;;;;;5017652;28;20042;-80
2021/12/17 08:33:53;;;;;;;42.90;23.80;;;;;;;;;;4990289;28;20042;-83
2021/12/17 08:36:19;;;;;;;38.33;22.73;;;;;;;;;;5003758;28;20097;-81
2021/12/17 08:38:45;;;;;;;42.85;24.27;;;;;;;;;;5271607;23;20050;-83
2021/12/17 08:41:12;;;;;;;43.30;23.77;;;;;;;;;;4987004;28;20081;-83
2021/12/17 08:43:38;;;;;;;44.00;24.75;;;;;;;;;;4987956;28;20097;-83
2021/12/17 08:46:04;;;;;;;45.30;26.75;;;;;;;;;;4987154;28;20086;-83
2021/12/17 08:48:30;;;;;;;53.78;29.02;;;;;;;;;;4971247;28;20366;-82
2021/12/17 08:50:56;;;;;;;53.40;29.92;;;;;;;;;;4970724;28;20038;-83
2021/12/17 08:53:22;;;;;;;56.00;32.10;;;;;;;;;;4969173;28;20057;-83
2021/12/17 08:55:48;;;;;;;58.28;32.08;;;;;;;;;;4971312;28;20077;-83
2021/12/17 08:58:14;;;;;;;56.38;31.45;;;;;;;;;;4970780;28;20110;-83
2021/12/17 09:00:44;;;;;;;54.65;33.38;;;;;;;;;;4986576;28;20070;-83
2021/12/17 09:03:10;;;;;;;57.53;32.42;;;;;;;;;;4987379;28;20048;-83
2021/12/17 09:05:40;;;;;;;59.35;33.50;;;;;;;;;;4994141;28;20045;-83
2021/12/17 09:08:06;;;;;;;57.75;33.60;;;;;;;;;;4998420;28;20121;-83
2021/12/17 09:10:33;;;;;;;54.65;32.22;;;;;;;;;;4998765;28;20046;-83
2021/12/17 09:12:59;;;;;;;56.35;32.67;;;;;;;;;;4982413;28;20355;-84
2021/12/17 09:15:25;;;;;;;57.72;32.38;;;;;;;;;;4977444;28;20146;-83
2021/12/17 09:17:51;;;;;;;59.10;31.67;;;;;;;;;;4985422;28;20046;-83
2021/12/17 09:20:17;;;;;;;59.80;31.63;;;;;;;;;;4978760;28;20125;-80
2021/12/17 09:22:43;;;;;;;57.17;31.58;;;;;;;;;;4990551;28;20102;-82
2021/12/17 09:25:09;;;;;;;50.95;31.05;;;;;;;;;;4998129;28;20038;-80
2021/12/17 09:27:35;;;;;;;49.47;29.98;;;;;;;;;;4979120;28;20039;-83
2021/12/17 09:30:01;;;;;;;52.08;29.90;;;;;;;;;;4988016;28;20034;-81
2021/12/17 09:32:27;;;;;;;52.13;30.42;;;;;;;;;;4987042;28;20046;-83
2021/12/17 09:34:53;;;;;;;54.13;31.45;;;;;;;;;;4990768;28;20105;-80
2021/12/17 09:37:19;;;;;;;49.90;30.33;;;;;;;;;;4993243;28;20046;-82
2021/12/17 09:39:45;;;;;;;50.78;30.08;;;;;;;;;;4986887;28;20058;-82
2021/12/17 09:42:11;;;;;;;55.08;30.25;;;;;;;;;;4988022;28;20042;-82
2021/12/17 09:44:37;;;;;;;46.80;29.27;;;;;;;;;;4969924;28;20042;-80
2021/12/17 09:47:03;;;;;;;53.00;29.27;;;;;;;;;;4971572;28;20034;-82
2021/12/17 09:49:29;;;;;;;54.20;28.50;;;;;;;;;;4971586;28;20042;-81
2021/12/17 09:51:56;;;;;;;42.08;27.92;;;;;;;;;;4971416;28;20048;-82
2021/12/17 09:54:22;;;;;;;42.03;26.98;;;;;;;;;;4970956;28;20486;-81
2021/12/17 09:56:48;;;;;;;45.83;26.20;;;;;;;;;;4986833;28;20057;-81
2021/12/17 09:59:14;;;;;;;40.58;24.33;;;;;;;;;;4970663;28;20447;-80
2021/12/17 10:01:47;;;;;;;40.88;26.15;;;;;;;;;;5097770;28;20398;-81
2021/12/17 10:04:20;;;;;;;43.42;27.50;;;;;;;;;;5083106;28;20471;-83
2021/12/17 10:06:46;;;;;;;43.03;26.83;;;;;;;;;;5099650;28;20074;-82
2021/12/17 10:09:13;;;;;;;46.10;29.13;;;;;;;;;;5065044;28;20041;-81
2021/12/17 10:11:39;;;;;;;46.40;28.05;;;;;;;;;;5081927;28;20060;-82
2021/12/17 10:14:15;;;;;;;46.88;31.35;;;;;;;;;;5081806;28;20028;-81
2021/12/17 10:16:41;;;;;;;45.65;29.55;;;;;;;;;;5080340;28;20040;-81
2021/12/17 10:19:07;;;;;;;51.35;30.25;;;;;;;;;;5063442;28;20032;-81
2021/12/17 10:21:38;;;;;;;54.88;31.48;;;;;;;;;;5079776;28;20120;-81
2021/12/17 10:24:04;;;;;;;51.25;30.58;;;;;;;;;;5080686;28;20097;-82
2021/12/17 10:26:39;;;;;;;49.80;30.23;;;;;;;;;;5063247;28;20043;-81
2021/12/17 10:29:05;;;;;;;62.53;32.25;;;;;;;;;;5079911;28;20040;-82
2021/12/17 10:31:33;;;;;;;54.92;32.20;;;;;;;;;;5064312;28;20040;-82
2021/12/17 10:34:04;;;;;;;49.90;31.05;;;;;;;;;;5065699;28;20477;-82
2021/12/17 10:36:36;;;;;;;52.55;31.52;;;;;;;;;;5098733;28;20036;-82
2021/12/17 10:39:03;;;;;;;52.97;33.00;;;;;;;;;;5063784;28;20048;-79
2021/12/17 10:41:30;;;;;;;66.38;35.55;;;;;;;;;;5082656;28;20044;-82
2021/12/17 10:44:00;;;;;;;66.20;34.60;;;;;;;;;;5081494;28;20032;-82
2021/12/17 10:46:31;;;;;;;58.15;34.40;;;;;;;;;;5081956;28;20054;-81
2021/12/17 10:49:13;;;;;;;61.17;35.97;;;;;;;;;;5081006;28;20032;-81
2021/12/17 10:54:06;;;;;;;60.88;35.70;;;;;;;;;;5082079;28;20060;-81
2021/12/17 10:56:37;;;;;;;62.88;34.83;;;;;;;;;;5065769;28;20044;-80
2021/12/17 10:59:04;;;;;;;60.00;33.63;;;;;;;;;;5082817;28;20054;-80
2021/12/17 11:01:32;;;;;;;67.57;36.00;;;;;;;;;;5063702;28;20068;-79
2021/12/17 11:04:09;;;;;;;63.42;35.90;;;;;;;;;;5079746;28;20032;-80
2021/12/17 11:06:42;;;;;;;66.90;35.90;;;;;;;;;;5063114;28;20064;-81
2021/12/17 11:09:08;;;;;;;63.95;35.25;;;;;;;;;;5065715;28;20033;-80
2021/12/17 11:11:41;;;;;;;60.00;35.53;;;;;;;;;;5059597;28;20075;-80
2021/12/17 11:14:07;;;;;;;60.67;35.28;;;;;;;;;;5051112;28;20111;-80
2021/12/17 11:16:33;;;;;;;65.60;35.85;;;;;;;;;;5066502;28;20051;-80
2021/12/17 11:18:59;;;;;;;67.93;37.08;;;;;;;;;;5049239;28;20092;-81
2021/12/17 11:21:25;;;;;;;64.68;37.28;;;;;;;;;;5066196;28;20047;-81
2021/12/17 11:23:51;;;;;;;64.03;36.45;;;;;;;;;;5049894;28;20036;-81
2021/12/17 11:26:17;;;;;;;61.88;35.92;;;;;;;;;;5050100;28;20064;-80
2021/12/17 11:28:44;;;;;;;64.05;34.08;;;;;;;;;;5049914;28;20056;-82
2021/12/17 11:31:10;;;;;;;67.78;35.25;;;;;;;;;;5066711;28;20416;-80
2021/12/17 11:33:36;;;;;;;60.35;33.97;;;;;;;;;;5049412;28;20098;-81
2021/12/17 11:36:02;;;;;;;58.58;31.13;;;;;;;;;;5049233;28;20041;-81
2021/12/17 11:38:41;;;;;;;60.10;32.10;;;;;;;;;;5048739;28;20044;-82
2021/12/17 11:41:13;;;;;;;57.05;27.02;;;;;;;;;;5066714;28;20056;-81
2021/12/17 11:43:47;;;;;;;50.13;25.33;;;;;;;;;;5066153;28;20087;-82
2021/12/17 11:46:13;;;;;;;51.10;25.27;;;;;;;;;;5066200;28;20448;-79
2021/12/17 11:48:39;;;;;;;57.47;26.80;;;;;;;;;;5048391;28;20041;-81
2021/12/17 11:51:13;;;;;;;56.35;26.95;;;;;;;;;;5048161;28;20041;-82
2021/12/17 11:53:43;;;;;;;51.83;25.13;;;;;;;;;;5048287;28;20365;-80
2021/12/17 11:56:09;;;;;;;54.15;25.88;;;;;;;;;;5065789;28;20059;-81
2021/12/17 11:58:46;;;;;;;58.97;27.10;;;;;;;;;;5066624;28;20048;-82
2021/12/17 12:01:13;;;;;;;60.80;25.33;;;;;;;;;;5054246;28;20060;-83
2021/12/17 12:03:39;;;;;;;45.88;23.85;;;;;;;;;;5073365;28;20094;-82
2021/12/17 12:06:05;;;;;;;38.03;21.88;;;;;;;;;;5057595;28;20044;-81
2021/12/17 12:08:37;;;;;;;38.08;22.45;;;;;;;;;;5056394;28;20097;-81
2021/12/17 12:11:12;;;;;;;35.38;19.80;;;;;;;;;;5050937;28;20056;-82
2021/12/17 12:13:38;;;;;;;34.83;21.38;;;;;;;;;;5067226;28;20131;-83
2021/12/17 12:16:05;;;;;;;28.52;18.25;;;;;;;;;;5064282;28;20040;-83
2021/12/17 12:18:39;;;;;;;31.95;19.38;;;;;;;;;;5046586;28;20128;-83
2021/12/17 12:21:05;;;;;;;28.50;17.95;;;;;;;;;;5063800;28;20041;-82
2021/12/17 12:23:31;;;;;;;29.50;17.67;;;;;;;;;;5045789;28;20437;-82
2021/12/17 12:26:03;;;;;;;32.20;18.67;;;;;;;;;;5063003;28;20056;-83
2021/12/17 12:28:47;;;;;;;30.08;19.75;;;;;;;;;;5067036;28;20093;-83
2021/12/17 12:31:19;;;;;;;30.92;20.35;;;;;;;;;;5068649;28;20055;-82
2021/12/17 12:34:04;;;;;;;30.25;19.88;;;;;;;;;;5063046;28;20037;-83
2021/12/17 12:36:49;;;;;;;28.75;18.83;;;;;;;;;;5068249;28;20561;-84
2021/12/17 12:39:15;;;;;;;32.42;21.38;;;;;;;;;;5068485;28;20048;-83
2021/12/17 12:41:57;;;;;;;38.15;21.40;;;;;;;;;;5064957;28;20037;-83
2021/12/17 12:44:42;;;;;;;29.63;20.27;;;;;;;;;;5066287;28;20033;-85
2021/12/17 12:47:29;;;;;;;27.80;20.17;;;;;;;;;;5065817;28;20041;-84
2021/12/17 12:50:06;;;;;;;27.23;20.48;;;;;;;;;;5066481;28;20041;-82
2021/12/17 12:52:32;;;;;;;35.88;23.83;;;;;;;;;;5066130;28;20045;-83
2021/12/17 12:55:24;;;;;;;39.35;23.40;;;;;;;;;;5065148;28;20044;-83
2021/12/17 12:57:51;;;;;;;38.38;25.50;;;;;;;;;;5060837;28;20127;-82
2021/12/17 13:00:22;;;;;;;42.65;27.92;;;;;;;;;;5063292;28;20060;-82
2021/12/17 13:02:49;;;;;;;41.45;26.55;;;;;;;;;;5064726;28;20348;-82
2021/12/17 13:05:15;;;;;;;42.75;26.50;;;;;;;;;;5047532;28;20073;-84
2021/12/17 13:07:50;;;;;;;38.88;24.30;;;;;;;;;;5046857;28;20225;-83
2021/12/17 13:10:20;;;;;;;33.47;23.85;;;;;;;;;;5069794;28;20048;-80
2021/12/17 13:12:58;;;;;;;40.65;24.27;;;;;;;;;;5054737;28;20079;-82
2021/12/17 13:15:51;;;;;;;36.42;22.30;;;;;;;;;;5064110;28;20040;-84
2021/12/17 13:23:49;;;;;;;30.58;19.08;;;;;;;;;;5063009;28;20178;-84
2021/12/17 13:26:15;;;;;;;31.95;19.60;;;;;;;;;;5047245;28;20425;-83
2021/12/17 13:28:52;;;;;;;28.70;17.70;;;;;;;;;;5063889;28;20033;-83
2021/12/17 13:31:31;;;;;;;23.23;15.82;;;;;;;;;;5064117;28;20436;-83
2021/12/17 13:33:57;;;;;;;30.15;17.45;;;;;;;;;;5046235;28;20067;-84
2021/12/17 13:36:23;;;;;;;28.08;17.10;;;;;;;;;;5046318;28;20108;-81
2021/12/17 13:38:56;;;;;;;25.17;15.85;;;;;;;;;;5063353;28;20456;-82
2021/12/17 13:41:22;;;;;;;;;;;;;;;;;;5063652;28;20029;-84
2021/12/17 13:43:48;;;;;;;32.80;20.83;;;;;;;;;;5063339;28;19936;-83
2021/12/17 13:46:14;;;;;;;35.70;21.10;;;;;;;;;;5064065;28;20063;-82
2021/12/17 13:48:40;;;;;;;40.83;24.33;;;;;;;;;;5046634;28;20033;-84
2021/12/17 13:51:09;;;;;;;36.90;24.17;;;;;;;;;;5046783;28;20045;-84
2021/12/17 13:53:35;;;;;;;36.83;22.52;;;;;;;;;;5062432;28;20045;-81
2021/12/17 13:56:01;;;;;;;33.83;22.20;;;;;;;;;;5054124;28;20045;-83
2021/12/17 13:58:28;;;;;;;31.05;20.45;;;;;;;;;;5076205;28;20064;-82
2021/12/17 14:00:54;;;;;;;34.30;22.13;;;;;;;;;;5070548;28;20048;-82
2021/12/17 14:03:22;;;;;;;31.17;18.48;;;;;;;;;;5045979;28;20048;-83
2021/12/17 14:05:57;;;;;;;31.08;19.20;;;;;;;;;;5043613;28;20077;-82
2021/12/17 14:08:23;;;;;;;26.10;17.60;;;;;;;;;;5045917;28;20040;-82
2021/12/17 14:10:50;;;;;;;26.85;16.83;;;;;;;;;;5060897;28;20049;-82
2021/12/17 14:13:21;;;;;;;25.17;15.93;;;;;;;;;;5074192;28;20017;-81
2021/12/17 14:15:47;;;;;;;25.90;15.65;;;;;;;;;;5070089;28;20099;-81
2021/12/17 14:18:23;;;;;;;25.65;15.82;;;;;;;;;;5044123;28;20056;-82
2021/12/17 14:20:50;;;;;;;22.83;15.75;;;;;;;;;;5043466;28;20100;-82
2021/12/17 14:23:17;;;;;;;25.65;16.08;;;;;;;;;;5064446;28;20044;-81
2021/12/17 14:25:44;;;;;;;24.95;16.95;;;;;;;;;;5050221;28;20028;-81
2021/12/17 14:28:15;;;;;;;24.67;15.43;;;;;;;;;;5048054;28;20045;-82
2021/12/17 14:30:42;;;;;;;22.70;15.10;;;;;;;;;;5042309;28;20040;-82
2021/12/17 14:33:08;;;;;;;23.70;14.75;;;;;;;;;;5042848;28;20051;-82
2021/12/17 14:35:41;;;;;;;20.48;15.05;;;;;;;;;;5060080;28;20045;-82
2021/12/17 14:38:07;;;;;;;23.00;14.90;;;;;;;;;;5042976;28;20369;-82
2021/12/17 14:40:47;;;;;;;18.17;11.82;;;;;;;;;;5059111;28;20036;-82
2021/12/17 14:43:20;;;;;;;15.90;10.65;;;;;;;;;;5059843;28;20083;-82
2021/12/17 14:46:00;;;;;;;15.63;11.13;;;;;;;;;;5065974;28;20013;-80
2021/12/17 14:48:39;;;;;;;14.75;9.48;;;;;;;;;;5079295;28;20021;-78
2021/12/17 15:04:49;;;;;;;9.65;6.53;;;;;;;;;;5069816;28;20139;-81
2021/12/17 15:07:17;;;;;;;10.95;6.72;;;;;;;;;;5071559;28;20041;-85
2021/12/17 15:09:45;;;;;;;11.00;6.97;;;;;;;;;;5070368;28;20116;-79
2021/12/17 15:12:57;;;;;;;13.82;7.00;;;;;;;;;;5054003;28;20107;-79
2021/12/17 15:14:57;;;;;;;10.27;7.00;;;;;;;;;;5061343;28;20041;-80
2021/12/17 15:17:23;;;;;;;12.02;7.35;;;;;;;;;;5046801;28;20037;-80
2021/12/17 15:19:49;;;;;;;11.98;6.55;;;;;;;;;;5046734;28;20535;-80
2021/12/17 15:22:15;;;;;;;9.93;6.65;;;;;;;;;;5047324;28;20060;-80
2021/12/17 15:24:41;;;;;;;10.27;6.38;;;;;;;;;;5063451;28;20036;-80
2021/12/17 15:27:07;;;;;;;9.82;6.30;;;;;;;;;;5063423;28;20036;-80
2021/12/17 15:29:33;;;;;;;11.10;7.28;;;;;;;;;;5063255;28;20032;-80
2021/12/17 15:31:59;;;;;;;16.45;9.05;;;;;;;;;;5050590;28;20037;-80
2021/12/17 15:34:26;;;;;;;23.23;12.57;;;;;;;;;;5080787;28;20065;-79
2021/12/17 15:36:53;;;;;;;11.88;7.78;;;;;;;;;;5080236;28;20071;-78
2021/12/17 15:39:19;;;;;;;11.45;7.97;;;;;;;;;;5066043;28;20056;-80
2021/12/17 15:41:45;;;;;;;10.13;6.55;;;;;;;;;;5061522;28;20116;-79
2021/12/17 15:44:11;;;;;;;11.70;7.30;;;;;;;;;;5072297;28;20044;-79
2021/12/17 15:46:37;;;;;;;13.95;7.57;;;;;;;;;;5043994;28;20494;-80
2021/12/17 15:49:04;;;;;;;10.20;6.85;;;;;;;;;;5044313;28;20037;-79
2021/12/17 15:51:30;;;;;;;11.32;6.90;;;;;;;;;;5046764;28;20381;-81
2021/12/17 15:53:56;;;;;;;9.90;7.00;;;;;;;;;;5045401;28;20144;-80
2021/12/17 15:56:22;;;;;;;12.57;7.22;;;;;;;;;;5045766;28;20072;-80
2021/12/17 15:58:48;;;;;;;15.05;7.88;;;;;;;;;;5044353;28;20436;-81
2021/12/17 16:01:14;;;;;;;13.25;8.13;;;;;;;;;;5060917;28;20064;-81
2021/12/17 16:03:42;;;;;;;13.93;8.55;;;;;;;;;;5061572;28;20051;-81
2021/12/17 16:06:09;;;;;;;12.70;7.35;;;;;;;;;;5056331;28;20379;-80
2021/12/17 16:08:38;;;;;;;16.42;8.95;;;;;;;;;;5044706;28;20041;-80
2021/12/17 16:11:40;;;;;;;14.32;9.00;;;;;;;;;;5062560;28;20039;-81
2021/12/17 16:22:00;;;;;;;11.57;8.88;;;;;;;;;;5062555;28;20052;-81
2021/12/17 16:24:26;;;;;;;14.13;9.40;;;;;;;;;;5064243;28;20065;-77
2021/12/17 16:26:54;;;;;;;17.60;11.07;;;;;;;;;;5049794;28;20079;-77
2021/12/17 16:29:20;;;;;;;16.40;9.93;;;;;;;;;;5048626;28;20055;-81
2021/12/17 16:31:46;;;;;;;17.17;10.43;;;;;;;;;;5063263;28;20033;-81
2021/12/17 16:34:12;;;;;;;15.02;9.85;;;;;;;;;;5064276;28;20106;-79
2021/12/17 16:36:39;;;;;;;17.02;10.23;;;;;;;;;;5070473;28;20040;-81
2021/12/17 16:39:06;;;;;;;17.17;10.20;;;;;;;;;;5057318;28;20033;-82
2021/12/17 16:41:32;;;;;;;17.55;11.65;;;;;;;;;;5073560;28;20055;-81
2021/12/17 16:44:04;;;;;;;17.08;10.77;;;;;;;;;;5049271;28;20388;-79
2021/12/17 16:49:07;;;;;;;13.73;9.65;;;;;;;;;;5062748;28;20075;-79
2021/12/17 16:51:33;;;;;;;13.60;9.00;;;;;;;;;;5061464;28;20076;-80
2021/12/17 16:53:59;;;;;;;15.10;10.45;;;;;;;;;;5045082;28;20063;-80
2021/12/17 16:56:26;;;;;;;15.13;10.55;;;;;;;;;;5061115;28;20044;-79
2021/12/17 16:58:52;;;;;;;16.75;10.32;;;;;;;;;;5061581;28;20047;-80
2021/12/17 17:01:18;;;;;;;19.58;10.55;;;;;;;;;;5050172;28;20076;-80
2021/12/17 17:03:44;;;;;;;16.55;11.18;;;;;;;;;;5069385;28;20071;-81
2021/12/17 17:06:10;;;;;;;17.65;10.30;;;;;;;;;;5049491;28;20060;-80
2021/12/17 17:08:36;;;;;;;19.85;11.05;;;;;;;;;;5060994;28;20040;-80
2021/12/17 17:11:04;;;;;;;18.40;11.85;;;;;;;;;;5053293;28;20059;-80
2021/12/17 17:13:33;;;;;;;16.90;10.80;;;;;;;;;;5044327;28;20044;-79
2021/12/17 17:16:03;;;;;;;16.33;11.25;;;;;;;;;;5060712;28;20041;-79
2021/12/17 17:18:29;;;;;;;15.60;11.18;;;;;;;;;;5060273;28;20092;-80
2021/12/17 17:20:56;;;;;;;16.95;11.43;;;;;;;;;;5060350;28;20444;-80
2021/12/17 17:23:22;;;;;;;17.58;11.88;;;;;;;;;;5060284;28;20052;-79